Terminal Aerodrome Forecast
Issued by NWS Bismarck, ND

Home | Current Version | Previous Version | Graphics & Text | Print | Product List | Glossary On
Versions: 1 2 3 4 5 6 7 8 9 10 11 12 13 14 15 16 17 18 19 20 21 22 23 24 25
594
FTUS43 KBIS 052332
TAFISN
TAF
KISN 052332Z 0600/0624 30025G32KT 1/2SM -SN BLSN OVC010
     FM060400 32023G34KT 1SM -SN BLSN OVC010
     FM061100 30024G34KT 3SM BLSN BKN015
     FM061800 30020G30KT P6SM OVC025=

USA.gov is the U.S. government's official web portal to all federal, state and local government web resources and services.